sensor_id;sensor_type;location;lat;lon;timestamp;P1;durP1;ratioP1;P2;durP2;ratioP2
74471;SDS011;62920;53.572;10.050;2022-10-26T00:01:06;16.05;;;4.50;;
74471;SDS011;62920;53.572;10.050;2022-10-26T00:06:04;11.52;;;4.90;;
74471;SDS011;62920;53.572;10.050;2022-10-26T00:08:34;12.88;;;4.32;;
74471;SDS011;62920;53.572;10.050;2022-10-26T00:11:00;10.07;;;4.40;;
74471;SDS011;62920;53.572;10.050;2022-10-26T00:13:26;9.95;;;4.60;;
74471;SDS011;62920;53.572;10.050;2022-10-26T00:15:51;12.23;;;4.63;;
74471;SDS011;62920;53.572;10.050;2022-10-26T00:18:17;11.52;;;4.30;;
74471;SDS011;62920;53.572;10.050;2022-10-26T00:20:42;10.63;;;4.88;;
74471;SDS011;62920;53.572;10.050;2022-10-26T00:23:08;11.25;;;4.88;;
74471;SDS011;62920;53.572;10.050;2022-10-26T00:25:33;10.88;;;4.75;;
74471;SDS011;62920;53.572;10.050;2022-10-26T00:27:58;12.93;;;4.53;;
74471;SDS011;62920;53.572;10.050;2022-10-26T00:30:24;11.75;;;4.57;;
74471;SDS011;62920;53.572;10.050;2022-10-26T00:32:49;10.95;;;5.07;;
74471;SDS011;62920;53.572;10.050;2022-10-26T00:35:15;8.55;;;4.25;;
74471;SDS011;62920;53.572;10.050;2022-10-26T00:37:40;9.52;;;5.07;;
74471;SDS011;62920;53.572;10.050;2022-10-26T00:40:06;10.95;;;4.70;;
74471;SDS011;62920;53.572;10.050;2022-10-26T00:42:31;12.48;;;5.10;;
74471;SDS011;62920;53.572;10.050;2022-10-26T00:44:57;13.52;;;4.63;;
74471;SDS011;62920;53.572;10.050;2022-10-26T00:49:57;12.32;;;5.00;;
74471;SDS011;62920;53.572;10.050;2022-10-26T00:52:24;8.02;;;4.75;;
74471;SDS011;62920;53.572;10.050;2022-10-26T00:54:50;10.88;;;4.68;;
74471;SDS011;62920;53.572;10.050;2022-10-26T00:57:16;10.57;;;4.90;;
74471;SDS011;62920;53.572;10.050;2022-10-26T00:59:42;12.20;;;5.05;;
74471;SDS011;62920;53.572;10.050;2022-10-26T01:02:08;11.98;;;4.63;;
74471;SDS011;62920;53.572;10.050;2022-10-26T01:04:33;8.07;;;4.57;;
74471;SDS011;62920;53.572;10.050;2022-10-26T01:07:02;10.10;;;4.40;;
74471;SDS011;62920;53.572;10.050;2022-10-26T01:09:28;11.05;;;4.90;;
74471;SDS011;62920;53.572;10.050;2022-10-26T01:11:54;12.15;;;5.03;;
74471;SDS011;62920;53.572;10.050;2022-10-26T01:14:20;10.35;;;4.70;;
74471;SDS011;62920;53.572;10.050;2022-10-26T01:17:07;9.20;;;5.03;;
74471;SDS011;62920;53.572;10.050;2022-10-26T01:27:33;9.13;;;4.47;;
74471;SDS011;62920;53.572;10.050;2022-10-26T01:32:55;10.38;;;4.18;;
74471;SDS011;62920;53.572;10.050;2022-10-26T01:38:23;9.23;;;4.70;;
74471;SDS011;62920;53.572;10.050;2022-10-26T01:40:57;10.50;;;4.35;;
74471;SDS011;62920;53.572;10.050;2022-10-26T01:43:54;12.93;;;4.63;;
74471;SDS011;62920;53.572;10.050;2022-10-26T01:46:34;9.80;;;4.85;;
74471;SDS011;62920;53.572;10.050;2022-10-26T01:49:06;8.50;;;4.43;;
74471;SDS011;62920;53.572;10.050;2022-10-26T01:51:34;9.15;;;4.40;;
74471;SDS011;62920;53.572;10.050;2022-10-26T01:53:59;10.52;;;4.75;;
74471;SDS011;62920;53.572;10.050;2022-10-26T01:56:29;12.15;;;4.47;;
74471;SDS011;62920;53.572;10.050;2022-10-26T02:04:06;16.02;;;4.80;;
74471;SDS011;62920;53.572;10.050;2022-10-26T02:09:33;10.40;;;4.53;;
74471;SDS011;62920;53.572;10.050;2022-10-26T02:12:02;11.77;;;4.50;;
74471;SDS011;62920;53.572;10.050;2022-10-26T02:14:50;8.63;;;4.28;;
74471;SDS011;62920;53.572;10.050;2022-10-26T02:17:27;12.73;;;4.63;;
74471;SDS011;62920;53.572;10.050;2022-10-26T02:19:59;10.98;;;4.78;;
74471;SDS011;62920;53.572;10.050;2022-10-26T02:24:56;11.55;;;4.60;;
74471;SDS011;62920;53.572;10.050;2022-10-26T02:27:27;12.02;;;5.57;;
74471;SDS011;62920;53.572;10.050;2022-10-26T02:29:55;7.75;;;4.30;;
74471;SDS011;62920;53.572;10.050;2022-10-26T02:32:22;9.82;;;4.45;;
74471;SDS011;62920;53.572;10.050;2022-10-26T02:34:50;8.70;;;4.57;;
74471;SDS011;62920;53.572;10.050;2022-10-26T02:37:17;11.15;;;4.78;;
74471;SDS011;62920;53.572;10.050;2022-10-26T02:39:44;7.28;;;4.07;;
74471;SDS011;62920;53.572;10.050;2022-10-26T02:42:11;9.68;;;4.78;;
74471;SDS011;62920;53.572;10.050;2022-10-26T02:44:43;14.50;;;5.10;;
74471;SDS011;62920;53.572;10.050;2022-10-26T02:47:12;9.63;;;4.15;;
74471;SDS011;62920;53.572;10.050;2022-10-26T02:49:38;9.43;;;4.65;;
74471;SDS011;62920;53.572;10.050;2022-10-26T02:52:05;8.93;;;4.57;;
74471;SDS011;62920;53.572;10.050;2022-10-26T02:54:47;10.90;;;4.43;;
74471;SDS011;62920;53.572;10.050;2022-10-26T02:57:48;8.93;;;4.30;;
74471;SDS011;62920;53.572;10.050;2022-10-26T03:00:07;9.48;;;4.70;;
74471;SDS011;62920;53.572;10.050;2022-10-26T03:02:33;10.90;;;4.68;;
74471;SDS011;62920;53.572;10.050;2022-10-26T03:07:56;11.02;;;4.75;;
74471;SDS011;62920;53.572;10.050;2022-10-26T03:12:48;13.73;;;4.80;;
74471;SDS011;62920;53.572;10.050;2022-10-26T03:15:14;10.18;;;5.03;;
74471;SDS011;62920;53.572;10.050;2022-10-26T03:17:39;8.80;;;5.10;;
74471;SDS011;62920;53.572;10.050;2022-10-26T03:20:05;9.23;;;4.70;;
74471;SDS011;62920;53.572;10.050;2022-10-26T03:22:31;10.68;;;5.43;;
74471;SDS011;62920;53.572;10.050;2022-10-26T03:24:56;10.57;;;5.03;;
74471;SDS011;62920;53.572;10.050;2022-10-26T03:27:21;14.40;;;6.10;;
74471;SDS011;62920;53.572;10.050;2022-10-26T03:29:47;11.20;;;6.10;;
74471;SDS011;62920;53.572;10.050;2022-10-26T03:32:12;12.63;;;5.57;;
74471;SDS011;62920;53.572;10.050;2022-10-26T03:34:38;14.68;;;5.80;;
74471;SDS011;62920;53.572;10.050;2022-10-26T03:37:03;11.15;;;5.80;;
74471;SDS011;62920;53.572;10.050;2022-10-26T03:39:28;12.02;;;5.05;;
74471;SDS011;62920;53.572;10.050;2022-10-26T03:41:54;9.95;;;5.00;;
74471;SDS011;62920;53.572;10.050;2022-10-26T03:44:20;12.00;;;5.10;;
74471;SDS011;62920;53.572;10.050;2022-10-26T03:46:45;12.63;;;5.47;;
74471;SDS011;62920;53.572;10.050;2022-10-26T03:49:11;12.20;;;5.68;;
74471;SDS011;62920;53.572;10.050;2022-10-26T03:51:36;13.05;;;5.63;;
74471;SDS011;62920;53.572;10.050;2022-10-26T03:54:02;10.80;;;5.13;;
74471;SDS011;62920;53.572;10.050;2022-10-26T03:56:28;30.40;;;6.63;;
74471;SDS011;62920;53.572;10.050;2022-10-26T03:58:53;21.80;;;6.50;;
74471;SDS011;62920;53.572;10.050;2022-10-26T04:01:19;23.85;;;7.03;;
74471;SDS011;62920;53.572;10.050;2022-10-26T04:03:44;35.95;;;7.18;;
74471;SDS011;62920;53.572;10.050;2022-10-26T04:06:09;17.35;;;6.85;;
74471;SDS011;62920;53.572;10.050;2022-10-26T04:08:35;16.52;;;7.13;;
74471;SDS011;62920;53.572;10.050;2022-10-26T04:11:00;13.10;;;6.22;;
74471;SDS011;62920;53.572;10.050;2022-10-26T04:13:25;28.30;;;6.78;;
74471;SDS011;62920;53.572;10.050;2022-10-26T04:15:51;22.92;;;7.57;;
74471;SDS011;62920;53.572;10.050;2022-10-26T04:18:19;27.02;;;7.53;;
74471;SDS011;62920;53.572;10.050;2022-10-26T04:20:44;20.23;;;7.47;;
74471;SDS011;62920;53.572;10.050;2022-10-26T04:23:11;19.92;;;7.72;;
74471;SDS011;62920;53.572;10.050;2022-10-26T04:25:38;35.75;;;7.18;;
74471;SDS011;62920;53.572;10.050;2022-10-26T04:28:03;24.52;;;8.50;;
74471;SDS011;62920;53.572;10.050;2022-10-26T04:30:30;31.27;;;8.25;;
74471;SDS011;62920;53.572;10.050;2022-10-26T04:32:56;20.85;;;8.10;;
74471;SDS011;62920;53.572;10.050;2022-10-26T04:35:21;24.35;;;8.20;;
74471;SDS011;62920;53.572;10.050;2022-10-26T04:37:47;29.58;;;7.88;;
74471;SDS011;62920;53.572;10.050;2022-10-26T04:40:12;19.65;;;8.48;;
74471;SDS011;62920;53.572;10.050;2022-10-26T04:42:44;16.73;;;7.30;;
74471;SDS011;62920;53.572;10.050;2022-10-26T04:45:11;23.65;;;9.13;;
74471;SDS011;62920;53.572;10.050;2022-10-26T04:47:37;23.33;;;9.07;;
74471;SDS011;62920;53.572;10.050;2022-10-26T04:50:03;20.48;;;8.95;;
74471;SDS011;62920;53.572;10.050;2022-10-26T04:52:29;23.42;;;9.38;;
74471;SDS011;62920;53.572;10.050;2022-10-26T04:54:54;22.60;;;9.43;;
74471;SDS011;62920;53.572;10.050;2022-10-26T04:57:19;21.20;;;8.70;;
74471;SDS011;62920;53.572;10.050;2022-10-26T04:59:45;20.90;;;8.85;;
74471;SDS011;62920;53.572;10.050;2022-10-26T05:02:10;20.33;;;8.45;;
74471;SDS011;62920;53.572;10.050;2022-10-26T05:04:35;23.13;;;9.43;;
74471;SDS011;62920;53.572;10.050;2022-10-26T05:07:01;18.77;;;9.25;;
74471;SDS011;62920;53.572;10.050;2022-10-26T05:09:26;18.52;;;9.07;;
74471;SDS011;62920;53.572;10.050;2022-10-26T05:11:51;15.80;;;7.45;;
74471;SDS011;62920;53.572;10.050;2022-10-26T05:14:17;19.23;;;9.13;;
74471;SDS011;62920;53.572;10.050;2022-10-26T05:16:42;19.58;;;9.07;;
74471;SDS011;62920;53.572;10.050;2022-10-26T05:19:08;22.17;;;8.95;;
74471;SDS011;62920;53.572;10.050;2022-10-26T05:21:34;19.75;;;9.43;;
74471;SDS011;62920;53.572;10.050;2022-10-26T05:23:59;22.13;;;9.48;;
74471;SDS011;62920;53.572;10.050;2022-10-26T05:26:25;19.48;;;9.00;;
74471;SDS011;62920;53.572;10.050;2022-10-26T05:28:50;20.20;;;9.68;;
74471;SDS011;62920;53.572;10.050;2022-10-26T05:31:16;19.48;;;8.77;;
74471;SDS011;62920;53.572;10.050;2022-10-26T05:33:41;19.60;;;8.25;;
74471;SDS011;62920;53.572;10.050;2022-10-26T05:36:07;26.25;;;9.63;;
74471;SDS011;62920;53.572;10.050;2022-10-26T05:38:32;24.08;;;10.23;;
74471;SDS011;62920;53.572;10.050;2022-10-26T05:40:58;17.13;;;9.07;;
74471;SDS011;62920;53.572;10.050;2022-10-26T05:43:25;21.95;;;9.55;;
74471;SDS011;62920;53.572;10.050;2022-10-26T05:45:51;20.30;;;9.98;;
74471;SDS011;62920;53.572;10.050;2022-10-26T05:48:17;21.23;;;9.73;;
74471;SDS011;62920;53.572;10.050;2022-10-26T05:50:44;23.65;;;10.02;;
74471;SDS011;62920;53.572;10.050;2022-10-26T05:53:09;19.15;;;9.73;;
74471;SDS011;62920;53.572;10.050;2022-10-26T05:55:35;19.58;;;9.00;;
74471;SDS011;62920;53.572;10.050;2022-10-26T05:58:01;19.27;;;9.15;;
74471;SDS011;62920;53.572;10.050;2022-10-26T06:00:27;28.55;;;9.73;;
74471;SDS011;62920;53.572;10.050;2022-10-26T06:03:00;19.83;;;9.68;;
74471;SDS011;62920;53.572;10.050;2022-10-26T06:05:52;18.23;;;9.23;;
74471;SDS011;62920;53.572;10.050;2022-10-26T06:08:19;23.77;;;10.23;;
74471;SDS011;62920;53.572;10.050;2022-10-26T06:10:46;20.17;;;9.45;;
74471;SDS011;62920;53.572;10.050;2022-10-26T06:13:12;19.60;;;8.82;;
74471;SDS011;62920;53.572;10.050;2022-10-26T06:15:48;19.95;;;9.07;;
74471;SDS011;62920;53.572;10.050;2022-10-26T06:20:52;16.33;;;8.70;;
74471;SDS011;62920;53.572;10.050;2022-10-26T06:23:39;16.95;;;7.97;;
74471;SDS011;62920;53.572;10.050;2022-10-26T06:32:06;19.60;;;7.68;;
74471;SDS011;62920;53.572;10.050;2022-10-26T06:34:33;17.58;;;8.20;;
74471;SDS011;62920;53.572;10.050;2022-10-26T06:37:00;19.40;;;8.65;;
74471;SDS011;62920;53.572;10.050;2022-10-26T06:39:26;21.90;;;8.57;;
74471;SDS011;62920;53.572;10.050;2022-10-26T06:41:54;18.67;;;9.27;;
74471;SDS011;62920;53.572;10.050;2022-10-26T06:44:21;19.25;;;9.10;;
74471;SDS011;62920;53.572;10.050;2022-10-26T06:46:50;18.10;;;7.78;;
74471;SDS011;62920;53.572;10.050;2022-10-26T06:51:59;19.58;;;8.27;;
74471;SDS011;62920;53.572;10.050;2022-10-26T06:57:00;17.77;;;8.50;;
74471;SDS011;62920;53.572;10.050;2022-10-26T06:59:31;25.45;;;9.48;;
74471;SDS011;62920;53.572;10.050;2022-10-26T07:02:02;14.07;;;7.72;;
74471;SDS011;62920;53.572;10.050;2022-10-26T07:04:27;24.23;;;8.52;;
74471;SDS011;62920;53.572;10.050;2022-10-26T07:06:53;17.95;;;8.95;;
74471;SDS011;62920;53.572;10.050;2022-10-26T07:09:20;17.60;;;8.25;;
74471;SDS011;62920;53.572;10.050;2022-10-26T07:11:46;16.80;;;8.73;;
74471;SDS011;62920;53.572;10.050;2022-10-26T07:14:11;18.73;;;8.65;;
74471;SDS011;62920;53.572;10.050;2022-10-26T07:16:37;17.27;;;7.75;;
74471;SDS011;62920;53.572;10.050;2022-10-26T07:19:02;14.43;;;7.35;;
74471;SDS011;62920;53.572;10.050;2022-10-26T07:21:27;20.20;;;8.80;;
74471;SDS011;62920;53.572;10.050;2022-10-26T07:23:53;17.42;;;8.38;;
74471;SDS011;62920;53.572;10.050;2022-10-26T07:26:20;17.42;;;8.13;;
74471;SDS011;62920;53.572;10.050;2022-10-26T07:28:50;17.73;;;7.97;;
74471;SDS011;62920;53.572;10.050;2022-10-26T07:31:15;15.70;;;7.95;;
74471;SDS011;62920;53.572;10.050;2022-10-26T07:33:41;14.60;;;7.85;;
74471;SDS011;62920;53.572;10.050;2022-10-26T07:36:08;16.70;;;8.15;;
74471;SDS011;62920;53.572;10.050;2022-10-26T07:38:35;15.23;;;8.23;;
74471;SDS011;62920;53.572;10.050;2022-10-26T07:41:01;16.10;;;8.48;;
74471;SDS011;62920;53.572;10.050;2022-10-26T07:43:27;20.70;;;8.77;;
74471;SDS011;62920;53.572;10.050;2022-10-26T07:45:53;17.83;;;8.25;;
74471;SDS011;62920;53.572;10.050;2022-10-26T07:48:18;17.45;;;8.13;;
74471;SDS011;62920;53.572;10.050;2022-10-26T07:50:43;14.15;;;7.30;;
74471;SDS011;62920;53.572;10.050;2022-10-26T07:53:09;18.23;;;7.40;;
74471;SDS011;62920;53.572;10.050;2022-10-26T07:55:34;16.95;;;7.88;;
74471;SDS011;62920;53.572;10.050;2022-10-26T07:58:00;15.70;;;7.68;;
74471;SDS011;62920;53.572;10.050;2022-10-26T08:00:25;15.60;;;8.43;;
74471;SDS011;62920;53.572;10.050;2022-10-26T08:02:52;14.13;;;7.25;;
74471;SDS011;62920;53.572;10.050;2022-10-26T08:05:18;16.42;;;7.80;;
74471;SDS011;62920;53.572;10.050;2022-10-26T08:07:44;19.98;;;8.05;;
74471;SDS011;62920;53.572;10.050;2022-10-26T08:10:10;16.80;;;7.13;;
74471;SDS011;62920;53.572;10.050;2022-10-26T08:12:36;12.73;;;6.55;;
74471;SDS011;62920;53.572;10.050;2022-10-26T08:15:01;14.60;;;6.70;;
74471;SDS011;62920;53.572;10.050;2022-10-26T08:17:28;14.93;;;7.20;;
74471;SDS011;62920;53.572;10.050;2022-10-26T08:19:53;15.35;;;6.85;;
74471;SDS011;62920;53.572;10.050;2022-10-26T08:22:19;14.88;;;6.75;;
74471;SDS011;62920;53.572;10.050;2022-10-26T08:24:44;12.07;;;7.03;;
74471;SDS011;62920;53.572;10.050;2022-10-26T08:27:11;13.30;;;6.95;;
74471;SDS011;62920;53.572;10.050;2022-10-26T08:29:38;16.23;;;6.72;;
74471;SDS011;62920;53.572;10.050;2022-10-26T08:32:04;10.27;;;6.18;;
74471;SDS011;62920;53.572;10.050;2022-10-26T08:34:29;16.58;;;6.35;;
74471;SDS011;62920;53.572;10.050;2022-10-26T08:36:54;13.05;;;6.55;;
74471;SDS011;62920;53.572;10.050;2022-10-26T08:39:20;14.80;;;6.30;;
74471;SDS011;62920;53.572;10.050;2022-10-26T08:41:46;12.02;;;6.53;;
74471;SDS011;62920;53.572;10.050;2022-10-26T08:46:46;13.90;;;6.07;;
74471;SDS011;62920;53.572;10.050;2022-10-26T08:51:48;15.50;;;6.30;;
74471;SDS011;62920;53.572;10.050;2022-10-26T08:56:47;14.20;;;6.45;;
74471;SDS011;62920;53.572;10.050;2022-10-26T08:59:33;15.55;;;5.72;;
74471;SDS011;62920;53.572;10.050;2022-10-26T09:02:01;14.40;;;5.85;;
74471;SDS011;62920;53.572;10.050;2022-10-26T09:04:27;10.40;;;5.32;;
74471;SDS011;62920;53.572;10.050;2022-10-26T09:15:17;13.40;;;5.88;;
74471;SDS011;62920;53.572;10.050;2022-10-26T09:20:48;13.88;;;5.75;;
74471;SDS011;62920;53.572;10.050;2022-10-26T09:26:19;13.88;;;5.72;;
74471;SDS011;62920;53.572;10.050;2022-10-26T09:29:00;11.57;;;5.05;;
74471;SDS011;62920;53.572;10.050;2022-10-26T09:31:27;10.65;;;5.85;;
74471;SDS011;62920;53.572;10.050;2022-10-26T09:33:54;9.27;;;5.10;;
74471;SDS011;62920;53.572;10.050;2022-10-26T09:36:21;9.73;;;5.00;;
74471;SDS011;62920;53.572;10.050;2022-10-26T09:38:52;13.10;;;5.25;;
74471;SDS011;62920;53.572;10.050;2022-10-26T09:41:39;8.77;;;4.82;;
74471;SDS011;62920;53.572;10.050;2022-10-26T09:47:05;9.88;;;4.65;;
74471;SDS011;62920;53.572;10.050;2022-10-26T09:49:37;10.05;;;4.47;;
74471;SDS011;62920;53.572;10.050;2022-10-26T09:52:09;12.95;;;4.90;;
74471;SDS011;62920;53.572;10.050;2022-10-26T09:54:34;9.30;;;4.57;;
74471;SDS011;62920;53.572;10.050;2022-10-26T09:57:00;10.93;;;4.85;;
74471;SDS011;62920;53.572;10.050;2022-10-26T09:59:26;9.40;;;4.47;;
74471;SDS011;62920;53.572;10.050;2022-10-26T10:01:52;11.13;;;4.22;;
74471;SDS011;62920;53.572;10.050;2022-10-26T10:04:18;6.97;;;3.95;;
74471;SDS011;62920;53.572;10.050;2022-10-26T10:06:50;8.93;;;4.30;;
74471;SDS011;62920;53.572;10.050;2022-10-26T10:09:17;10.10;;;4.15;;
74471;SDS011;62920;53.572;10.050;2022-10-26T10:11:50;10.45;;;4.00;;
74471;SDS011;62920;53.572;10.050;2022-10-26T10:14:20;8.95;;;3.65;;
74471;SDS011;62920;53.572;10.050;2022-10-26T10:17:02;7.88;;;3.75;;
74471;SDS011;62920;53.572;10.050;2022-10-26T10:19:35;7.85;;;3.58;;
74471;SDS011;62920;53.572;10.050;2022-10-26T10:22:07;7.22;;;3.88;;
74471;SDS011;62920;53.572;10.050;2022-10-26T10:24:40;7.78;;;3.60;;
74471;SDS011;62920;53.572;10.050;2022-10-26T10:29:44;12.68;;;3.83;;
74471;SDS011;62920;53.572;10.050;2022-10-26T10:32:14;8.05;;;3.75;;
74471;SDS011;62920;53.572;10.050;2022-10-26T10:34:47;8.15;;;3.55;;
74471;SDS011;62920;53.572;10.050;2022-10-26T10:39:44;6.38;;;3.38;;
74471;SDS011;62920;53.572;10.050;2022-10-26T10:42:14;8.55;;;3.47;;
74471;SDS011;62920;53.572;10.050;2022-10-26T10:47:13;7.72;;;3.58;;
74471;SDS011;62920;53.572;10.050;2022-10-26T10:49:42;8.88;;;3.90;;
74471;SDS011;62920;53.572;10.050;2022-10-26T10:52:37;8.77;;;3.97;;
74471;SDS011;62920;53.572;10.050;2022-10-26T10:55:08;9.27;;;2.80;;
74471;SDS011;62920;53.572;10.050;2022-10-26T11:00:13;9.52;;;3.92;;
74471;SDS011;62920;53.572;10.050;2022-10-26T11:02:45;8.18;;;4.03;;
74471;SDS011;62920;53.572;10.050;2022-10-26T11:05:35;6.88;;;3.60;;
74471;SDS011;62920;53.572;10.050;2022-10-26T11:08:05;7.03;;;3.95;;
74471;SDS011;62920;53.572;10.050;2022-10-26T11:10:38;9.73;;;3.60;;
74471;SDS011;62920;53.572;10.050;2022-10-26T11:13:09;7.18;;;3.40;;
74471;SDS011;62920;53.572;10.050;2022-10-26T11:15:57;14.40;;;3.78;;
74471;SDS011;62920;53.572;10.050;2022-10-26T11:18:28;6.03;;;3.83;;
74471;SDS011;62920;53.572;10.050;2022-10-26T11:21:00;8.43;;;3.92;;
74471;SDS011;62920;53.572;10.050;2022-10-26T11:23:33;12.48;;;3.97;;
74471;SDS011;62920;53.572;10.050;2022-10-26T11:26:03;7.65;;;3.67;;
74471;SDS011;62920;53.572;10.050;2022-10-26T11:28:46;7.45;;;3.78;;
74471;SDS011;62920;53.572;10.050;2022-10-26T11:31:37;6.88;;;3.70;;
74471;SDS011;62920;53.572;10.050;2022-10-26T11:36:41;9.02;;;4.15;;
74471;SDS011;62920;53.572;10.050;2022-10-26T11:39:10;6.55;;;3.78;;
74471;SDS011;62920;53.572;10.050;2022-10-26T11:44:34;9.27;;;3.47;;
74471;SDS011;62920;53.572;10.050;2022-10-26T11:47:17;6.28;;;3.60;;
74471;SDS011;62920;53.572;10.050;2022-10-26T11:49:52;7.97;;;3.97;;
74471;SDS011;62920;53.572;10.050;2022-10-26T11:52:32;8.85;;;3.70;;
74471;SDS011;62920;53.572;10.050;2022-10-26T11:55:07;9.65;;;3.72;;
74471;SDS011;62920;53.572;10.050;2022-10-26T11:57:34;7.60;;;3.28;;
74471;SDS011;62920;53.572;10.050;2022-10-26T12:00:03;9.52;;;3.60;;
74471;SDS011;62920;53.572;10.050;2022-10-26T12:02:30;7.88;;;3.20;;
74471;SDS011;62920;53.572;10.050;2022-10-26T12:07:42;10.93;;;3.78;;
74471;SDS011;62920;53.572;10.050;2022-10-26T12:10:19;13.82;;;3.70;;
74471;SDS011;62920;53.572;10.050;2022-10-26T12:12:53;8.98;;;3.90;;
74471;SDS011;62920;53.572;10.050;2022-10-26T12:22:59;8.55;;;4.10;;
74471;SDS011;62920;53.572;10.050;2022-10-26T12:25:25;9.30;;;3.65;;
74471;SDS011;62920;53.572;10.050;2022-10-26T12:27:52;7.45;;;3.90;;
74471;SDS011;62920;53.572;10.050;2022-10-26T12:32:49;8.82;;;3.80;;
74471;SDS011;62920;53.572;10.050;2022-10-26T12:38:02;6.55;;;2.58;;
74471;SDS011;62920;53.572;10.050;2022-10-26T12:40:46;6.47;;;2.97;;
74471;SDS011;62920;53.572;10.050;2022-10-26T12:45:41;8.07;;;2.38;;
74471;SDS011;62920;53.572;10.050;2022-10-26T12:50:35;7.43;;;2.30;;
74471;SDS011;62920;53.572;10.050;2022-10-26T12:53:04;5.45;;;2.33;;
74471;SDS011;62920;53.572;10.050;2022-10-26T13:08:53;6.45;;;2.20;;
74471;SDS011;62920;53.572;10.050;2022-10-26T13:11:25;6.25;;;1.73;;
74471;SDS011;62920;53.572;10.050;2022-10-26T13:13:54;6.45;;;2.05;;
74471;SDS011;62920;53.572;10.050;2022-10-26T13:16:30;10.77;;;2.33;;
74471;SDS011;62920;53.572;10.050;2022-10-26T13:18:55;7.35;;;2.17;;
74471;SDS011;62920;53.572;10.050;2022-10-26T13:21:22;15.82;;;2.40;;
74471;SDS011;62920;53.572;10.050;2022-10-26T13:26:17;7.40;;;2.40;;
74471;SDS011;62920;53.572;10.050;2022-10-26T13:28:46;6.53;;;1.95;;
74471;SDS011;62920;53.572;10.050;2022-10-26T13:39:30;7.53;;;1.70;;
74471;SDS011;62920;53.572;10.050;2022-10-26T13:41:59;3.28;;;1.88;;
74471;SDS011;62920;53.572;10.050;2022-10-26T13:44:36;4.85;;;1.55;;
74471;SDS011;62920;53.572;10.050;2022-10-26T13:47:07;3.63;;;1.63;;
74471;SDS011;62920;53.572;10.050;2022-10-26T13:49:39;8.13;;;2.20;;
74471;SDS011;62920;53.572;10.050;2022-10-26T13:52:11;5.05;;;1.63;;
74471;SDS011;62920;53.572;10.050;2022-10-26T13:54:43;6.57;;;2.00;;
74471;SDS011;62920;53.572;10.050;2022-10-26T13:57:16;5.97;;;2.28;;
74471;SDS011;62920;53.572;10.050;2022-10-26T13:59:43;8.73;;;2.10;;
74471;SDS011;62920;53.572;10.050;2022-10-26T14:04:44;5.38;;;2.08;;
74471;SDS011;62920;53.572;10.050;2022-10-26T14:07:14;7.28;;;1.80;;
74471;SDS011;62920;53.572;10.050;2022-10-26T14:09:42;8.30;;;2.10;;
74471;SDS011;62920;53.572;10.050;2022-10-26T14:12:08;6.75;;;2.10;;
74471;SDS011;62920;53.572;10.050;2022-10-26T14:14:35;9.27;;;2.08;;
74471;SDS011;62920;53.572;10.050;2022-10-26T14:17:01;8.77;;;2.13;;
74471;SDS011;62920;53.572;10.050;2022-10-26T14:22:02;6.10;;;2.00;;
74471;SDS011;62920;53.572;10.050;2022-10-26T14:24:34;6.25;;;1.90;;
74471;SDS011;62920;53.572;10.050;2022-10-26T14:27:15;6.63;;;2.20;;
74471;SDS011;62920;53.572;10.050;2022-10-26T14:29:41;7.70;;;2.03;;
74471;SDS011;62920;53.572;10.050;2022-10-26T14:32:25;5.95;;;2.20;;
74471;SDS011;62920;53.572;10.050;2022-10-26T14:34:52;6.82;;;2.28;;
74471;SDS011;62920;53.572;10.050;2022-10-26T14:37:35;6.18;;;1.98;;
74471;SDS011;62920;53.572;10.050;2022-10-26T14:40:04;4.72;;;1.73;;
74471;SDS011;62920;53.572;10.050;2022-10-26T14:42:32;4.78;;;1.70;;
74471;SDS011;62920;53.572;10.050;2022-10-26T14:44:59;4.47;;;1.67;;
74471;SDS011;62920;53.572;10.050;2022-10-26T14:47:27;7.47;;;1.90;;
74471;SDS011;62920;53.572;10.050;2022-10-26T14:49:53;4.45;;;1.60;;
74471;SDS011;62920;53.572;10.050;2022-10-26T14:52:23;7.28;;;1.50;;
74471;SDS011;62920;53.572;10.050;2022-10-26T14:57:34;7.13;;;1.80;;
74471;SDS011;62920;53.572;10.050;2022-10-26T15:00:23;7.82;;;1.80;;
74471;SDS011;62920;53.572;10.050;2022-10-26T15:02:52;5.78;;;1.60;;
74471;SDS011;62920;53.572;10.050;2022-10-26T15:05:20;8.88;;;1.60;;
74471;SDS011;62920;53.572;10.050;2022-10-26T15:07:53;8.40;;;1.83;;
74471;SDS011;62920;53.572;10.050;2022-10-26T15:13:09;6.93;;;1.80;;
74471;SDS011;62920;53.572;10.050;2022-10-26T15:16:16;7.05;;;1.98;;
74471;SDS011;62920;53.572;10.050;2022-10-26T15:18:41;6.13;;;1.70;;
74471;SDS011;62920;53.572;10.050;2022-10-26T15:21:18;4.88;;;2.13;;
74471;SDS011;62920;53.572;10.050;2022-10-26T15:23:50;5.78;;;2.15;;
74471;SDS011;62920;53.572;10.050;2022-10-26T15:26:16;5.65;;;2.13;;
74471;SDS011;62920;53.572;10.050;2022-10-26T15:28:42;6.70;;;2.05;;
74471;SDS011;62920;53.572;10.050;2022-10-26T15:33:37;9.82;;;2.40;;
74471;SDS011;62920;53.572;10.050;2022-10-26T15:38:32;8.27;;;2.00;;
74471;SDS011;62920;53.572;10.050;2022-10-26T15:40:58;5.10;;;2.20;;
74471;SDS011;62920;53.572;10.050;2022-10-26T15:43:23;4.88;;;2.53;;
74471;SDS011;62920;53.572;10.050;2022-10-26T15:45:49;10.15;;;2.03;;
74471;SDS011;62920;53.572;10.050;2022-10-26T15:48:22;8.48;;;2.85;;
74471;SDS011;62920;53.572;10.050;2022-10-26T15:50:49;7.05;;;2.70;;
74471;SDS011;62920;53.572;10.050;2022-10-26T15:53:19;6.60;;;2.53;;
74471;SDS011;62920;53.572;10.050;2022-10-26T15:55:46;7.75;;;2.72;;
74471;SDS011;62920;53.572;10.050;2022-10-26T15:58:13;8.30;;;3.20;;
74471;SDS011;62920;53.572;10.050;2022-10-26T16:00:38;8.13;;;2.58;;
74471;SDS011;62920;53.572;10.050;2022-10-26T16:03:04;8.63;;;2.55;;
74471;SDS011;62920;53.572;10.050;2022-10-26T16:05:29;6.53;;;2.42;;
74471;SDS011;62920;53.572;10.050;2022-10-26T16:07:54;7.72;;;2.42;;
74471;SDS011;62920;53.572;10.050;2022-10-26T16:10:21;7.20;;;2.38;;
74471;SDS011;62920;53.572;10.050;2022-10-26T16:12:48;5.53;;;2.28;;
74471;SDS011;62920;53.572;10.050;2022-10-26T16:15:15;6.40;;;2.13;;
74471;SDS011;62920;53.572;10.050;2022-10-26T16:17:42;6.50;;;2.10;;
74471;SDS011;62920;53.572;10.050;2022-10-26T16:20:10;6.20;;;1.90;;
74471;SDS011;62920;53.572;10.050;2022-10-26T16:22:38;6.25;;;1.85;;
74471;SDS011;62920;53.572;10.050;2022-10-26T16:25:05;5.65;;;2.17;;
74471;SDS011;62920;53.572;10.050;2022-10-26T16:27:31;7.97;;;2.03;;
74471;SDS011;62920;53.572;10.050;2022-10-26T16:29:57;5.47;;;2.22;;
74471;SDS011;62920;53.572;10.050;2022-10-26T16:32:22;5.68;;;2.25;;
74471;SDS011;62920;53.572;10.050;2022-10-26T16:34:47;6.13;;;2.22;;
74471;SDS011;62920;53.572;10.050;2022-10-26T16:37:13;5.78;;;2.42;;
74471;SDS011;62920;53.572;10.050;2022-10-26T16:39:38;6.15;;;2.50;;
74471;SDS011;62920;53.572;10.050;2022-10-26T16:42:03;7.28;;;2.33;;
74471;SDS011;62920;53.572;10.050;2022-10-26T16:44:30;6.35;;;2.10;;
74471;SDS011;62920;53.572;10.050;2022-10-26T16:46:56;6.60;;;2.30;;
74471;SDS011;62920;53.572;10.050;2022-10-26T16:49:21;5.68;;;2.28;;
74471;SDS011;62920;53.572;10.050;2022-10-26T16:51:46;6.47;;;2.10;;
74471;SDS011;62920;53.572;10.050;2022-10-26T16:54:12;6.50;;;2.28;;
74471;SDS011;62920;53.572;10.050;2022-10-26T16:56:37;6.53;;;1.98;;
74471;SDS011;62920;53.572;10.050;2022-10-26T16:59:02;6.10;;;1.85;;
74471;SDS011;62920;53.572;10.050;2022-10-26T17:01:28;8.23;;;2.70;;
74471;SDS011;62920;53.572;10.050;2022-10-26T17:03:53;7.95;;;2.60;;
74471;SDS011;62920;53.572;10.050;2022-10-26T17:06:19;7.47;;;1.83;;